Time;durP1;ratioP1;P1;durP2;ratioP2;P2;SDS_P1;SDS_P2;PMS_P1;PMS_P2;Temp;Humidity;BMP_temperature;BMP_pressure;BME280_temperature;BME280_humidity;BME280_pressure;Samples;Min_cycle;Max_cycle;Signal;HPM_P1;HPM_P2
2023/05/03 00:01:13;;;;;;;16.02;7.43;;;;;;;;;;4990938;28;20060;-91
2023/05/03 00:03:42;;;;;;;20.67;6.97;;;9.40;99.90;;;;;;4962358;28;20054;-93
2023/05/03 00:06:14;;;;;;;18.50;6.53;;;9.40;99.90;;;;;;4960445;28;20069;-93
2023/05/03 00:08:42;;;;;;;11.38;6.88;;;9.40;99.90;;;;;;4964682;28;20053;-92
2023/05/03 00:11:10;;;;;;;18.08;6.45;;;;;;;;;;5001924;28;20065;-92
2023/05/03 00:13:38;;;;;;;17.00;7.13;;;;;;;;;;4971521;28;20053;-91
2023/05/03 00:16:06;;;;;;;17.42;6.82;;;9.50;99.90;;;;;;4957759;28;20073;-91
2023/05/03 00:18:34;;;;;;;15.43;6.35;;;9.50;99.90;;;;;;4972992;28;20061;-90
2023/05/03 00:21:02;;;;;;;14.05;6.60;;;;;;;;;;4994503;28;20405;-89
2023/05/03 00:23:30;;;;;;;17.85;6.05;;;9.60;99.90;;;;;;4966734;28;20539;-92
2023/05/03 00:25:59;;;;;;;13.60;6.80;;;;;;;;;;4976570;28;20516;-92
2023/05/03 00:28:26;;;;;;;13.57;6.47;;;9.70;99.90;;;;;;4976163;28;20058;-94
2023/05/03 00:30:54;;;;;;;11.25;5.80;;;9.60;99.90;;;;;;5008442;23;20066;-61
2023/05/03 00:33:22;;;;;;;16.85;7.00;;;;;;;;;;5005899;28;20038;-60
2023/05/03 00:35:50;;;;;;;19.05;7.15;;;9.60;99.90;;;;;;5022284;28;20050;-60
2023/05/03 00:38:18;;;;;;;15.35;7.43;;;9.60;99.90;;;;;;5006749;28;20049;-60
2023/05/03 00:40:53;;;;;;;17.90;7.20;;;9.60;99.90;;;;;;5009523;28;20477;-61
2023/05/03 00:43:20;;;;;;;15.93;6.70;;;9.50;99.90;;;;;;5009333;28;20056;-60
2023/05/03 00:45:49;;;;;;;18.20;6.93;;;9.50;99.90;;;;;;5007921;28;20045;-59
2023/05/03 00:48:17;;;;;;;16.52;7.25;;;9.50;99.90;;;;;;4978337;28;20046;-60
2023/05/03 00:50:46;;;;;;;17.65;7.68;;;9.50;99.90;;;;;;5003646;28;20057;-61
2023/05/03 00:53:15;;;;;;;17.80;8.38;;;9.50;99.90;;;;;;5005438;28;20046;-60
2023/05/03 00:55:44;;;;;;;20.30;8.70;;;9.50;99.90;;;;;;5021703;28;20042;-60
2023/05/03 00:58:12;;;;;;;17.88;7.65;;;9.50;99.90;;;;;;5006038;28;20064;-60
2023/05/03 01:00:40;;;;;;;12.07;6.78;;;9.40;99.90;;;;;;5003631;28;20229;-59
2023/05/03 01:03:10;;;;;;;20.27;7.53;;;9.50;99.90;;;;;;5005744;28;20050;-60
2023/05/03 01:06:13;;;;;;;19.75;6.85;;;9.40;99.90;;;;;;4988921;28;20061;-59
2023/05/03 01:08:49;;;;;;;16.05;7.72;;;9.50;99.90;;;;;;4981766;28;20061;-60
2023/05/03 01:11:25;;;;;;;14.25;6.70;;;9.50;99.90;;;;;;5000197;28;20046;-59
2023/05/03 01:14:05;;;;;;;20.15;7.95;;;9.40;99.90;;;;;;4995699;28;20046;-60
2023/05/03 01:16:54;;;;;;;17.10;7.32;;;9.40;99.90;;;;;;5007753;28;20038;-59
2023/05/03 01:19:33;;;;;;;17.52;7.13;;;9.50;99.90;;;;;;5002670;28;20665;-60
2023/05/03 01:22:09;;;;;;;;;;;9.40;99.90;;;;;;5000367;28;20053;-60
2023/05/03 01:24:43;;;;;;;15.27;6.88;;;9.40;99.90;;;;;;5008310;28;19921;-60
2023/05/03 01:27:11;;;;;;;24.55;8.00;;;9.40;99.90;;;;;;5008007;28;20515;-60
2023/05/03 01:29:39;;;;;;;16.23;7.85;;;9.40;99.90;;;;;;4989487;28;20046;-60
2023/05/03 01:32:18;;;;;;;24.00;9.32;;;9.40;99.90;;;;;;5012506;28;20057;-60
2023/05/03 01:35:25;;;;;;;21.25;8.00;;;9.30;99.90;;;;;;5031149;28;20044;-60
2023/05/03 01:37:55;;;;;;;17.83;7.28;;;9.20;99.90;;;;;;5022300;28;20041;-61
2023/05/03 01:40:25;;;;;;;18.02;7.28;;;9.20;99.90;;;;;;5003662;28;20037;-60
2023/05/03 01:42:54;;;;;;;;;;;9.20;99.90;;;;;;5010227;28;20400;-59
2023/05/03 01:45:21;;;;;;;16.85;6.45;;;9.10;99.90;;;;;;5012710;28;19928;-60
2023/05/03 01:47:49;;;;;;;14.38;6.60;;;9.00;99.90;;;;;;5003166;28;20045;-59
2023/05/03 01:50:17;;;;;;;22.27;8.15;;;9.00;99.90;;;;;;5028451;28;20045;-59
2023/05/03 01:52:44;;;;;;;16.92;6.40;;;9.00;99.90;;;;;;4994706;28;20484;-58
2023/05/03 01:55:15;;;;;;;16.17;7.38;;;8.90;99.90;;;;;;5027353;28;20045;-59
2023/05/03 01:57:44;;;;;;;18.85;7.63;;;8.30;99.90;;;;;;5009990;28;20050;-59
2023/05/03 02:00:12;;;;;;;23.30;6.82;;;8.90;99.90;;;;;;5011843;28;20073;-59
2023/05/03 02:02:40;;;;;;;20.15;7.38;;;8.80;99.90;;;;;;5024759;28;20045;-58
2023/05/03 02:05:09;;;;;;;15.98;7.00;;;8.80;99.90;;;;;;5031346;28;20057;-59
2023/05/03 02:07:37;;;;;;;23.20;8.03;;;8.80;99.90;;;;;;5013872;28;20041;-58
2023/05/03 02:10:05;;;;;;;19.02;7.30;;;8.80;99.90;;;;;;5012845;28;20041;-59
2023/05/03 02:12:33;;;;;;;20.80;6.85;;;8.70;99.90;;;;;;5025289;28;20045;-60
2023/05/03 02:15:00;;;;;;;14.95;8.35;;;8.70;99.90;;;;;;5012531;28;20045;-58
2023/05/03 02:17:28;;;;;;;14.43;7.15;;;8.70;99.90;;;;;;5009978;28;20073;-61
2023/05/03 02:19:56;;;;;;;15.57;7.18;;;8.70;99.90;;;;;;4994235;28;20050;-60
2023/05/03 02:22:24;;;;;;;21.02;7.05;;;8.70;99.90;;;;;;5023999;28;20037;-61
2023/05/03 02:24:52;;;;;;;18.58;7.28;;;;;;;;;;5013620;28;20057;-62
2023/05/03 02:27:19;;;;;;;15.00;7.22;;;8.60;99.90;;;;;;5031627;28;20050;-60
2023/05/03 02:29:47;;;;;;;20.27;7.20;;;8.60;99.90;;;;;;5030711;28;20381;-60
2023/05/03 02:32:15;;;;;;;16.70;7.18;;;8.60;99.90;;;;;;5013554;28;20061;-59
2023/05/03 02:34:47;;;;;;;14.88;6.72;;;8.60;99.90;;;;;;5013277;28;20041;-59
2023/05/03 02:37:19;;;;;;;20.15;7.55;;;8.60;99.90;;;;;;5029709;28;20416;-59
2023/05/03 02:39:47;;;;;;;20.70;7.47;;;8.50;99.90;;;;;;5012639;28;20388;-59
2023/05/03 02:42:16;;;;;;;16.17;6.97;;;8.50;99.90;;;;;;5013646;28;20052;-61
2023/05/03 02:44:45;;;;;;;18.42;6.53;;;8.50;99.90;;;;;;5030088;28;20041;-59
2023/05/03 02:47:12;;;;;;;19.35;7.90;;;8.50;99.90;;;;;;5019731;28;20816;-59
2023/05/03 02:49:43;;;;;;;15.75;7.38;;;8.50;99.90;;;;;;5013346;28;20093;-60
2023/05/03 02:52:10;;;;;;;24.38;7.28;;;8.50;99.90;;;;;;5026455;28;20053;-61
2023/05/03 02:54:38;;;;;;;14.98;7.70;;;8.50;99.90;;;;;;5031128;28;20531;-60
2023/05/03 02:57:10;;;;;;;13.45;6.72;;;8.40;99.90;;;;;;4997225;28;20508;-60
2023/05/03 02:59:38;;;;;;;15.15;6.68;;;8.40;99.90;;;;;;5013339;28;20056;-60
2023/05/03 03:02:06;;;;;;;18.02;7.38;;;8.40;99.90;;;;;;5022685;28;20049;-59
2023/05/03 03:04:36;;;;;;;18.60;7.35;;;8.30;99.90;;;;;;5011255;28;20046;-60
2023/05/03 03:07:04;;;;;;;16.77;7.30;;;8.30;99.90;;;;;;5009921;28;20042;-59
2023/05/03 03:09:31;;;;;;;20.08;7.07;;;8.30;99.90;;;;;;5009832;28;20516;-60
2023/05/03 03:12:02;;;;;;;15.18;6.90;;;8.30;99.90;;;;;;5027459;28;20378;-59
2023/05/03 03:14:32;;;;;;;16.30;6.93;;;8.20;99.90;;;;;;4997390;28;20049;-59
2023/05/03 03:17:07;;;;;;;15.95;6.80;;;8.20;99.90;;;;;;5030601;28;20485;-59
2023/05/03 03:19:35;;;;;;;19.35;6.38;;;8.10;99.90;;;;;;5030451;28;20053;-59
2023/05/03 03:22:06;;;;;;;13.75;6.80;;;8.10;99.90;;;;;;5008267;28;20044;-60
2023/05/03 03:24:34;;;;;;;14.68;6.55;;;8.00;99.90;;;;;;5016940;28;20041;-59
2023/05/03 03:27:03;;;;;;;16.83;6.28;;;8.10;99.90;;;;;;5016387;28;20113;-59
2023/05/03 03:29:32;;;;;;;16.10;6.78;;;8.10;99.90;;;;;;5000001;28;20394;-60
2023/05/03 03:32:01;;;;;;;14.93;6.28;;;8.00;99.90;;;;;;5020044;28;20052;-60
2023/05/03 03:34:29;;;;;;;16.48;6.40;;;8.00;99.90;;;;;;5033851;28;20504;-60
2023/05/03 03:36:57;;;;;;;16.50;5.75;;;8.00;99.90;;;;;;5033949;28;20037;-60
2023/05/03 03:39:27;;;;;;;15.63;6.40;;;8.00;99.90;;;;;;5000863;28;20081;-61
2023/05/03 03:41:55;;;;;;;18.70;5.68;;;7.90;99.90;;;;;;5007236;28;20049;-59
2023/05/03 03:44:22;;;;;;;11.15;5.13;;;7.90;99.90;;;;;;4996857;28;20056;-60
2023/05/03 03:46:50;;;;;;;13.57;6.50;;;7.90;99.90;;;;;;5012765;28;20419;-61
2023/05/03 03:49:18;;;;;;;13.73;5.53;;;7.90;99.90;;;;;;5032879;28;20518;-60
2023/05/03 03:51:46;;;;;;;16.73;6.95;;;7.90;99.90;;;;;;5029320;28;20041;-60
2023/05/03 03:54:14;;;;;;;11.50;5.32;;;7.80;99.90;;;;;;5012876;28;20046;-60
2023/05/03 03:56:47;;;;;;;13.80;6.00;;;7.80;99.90;;;;;;5016269;28;20045;-59
2023/05/03 03:59:16;;;;;;;13.23;5.80;;;7.80;99.90;;;;;;5016097;28;20100;-59
2023/05/03 04:01:45;;;;;;;13.98;5.97;;;7.70;99.90;;;;;;5017110;28;20042;-60
2023/05/03 04:04:13;;;;;;;12.10;5.28;;;7.70;99.90;;;;;;5032347;28;20064;-59
2023/05/03 04:06:41;;;;;;;14.85;4.90;;;7.70;99.90;;;;;;5018303;28;20515;-60
2023/05/03 04:09:12;;;;;;;10.15;5.10;;;7.60;99.90;;;;;;5032482;28;20045;-60
2023/05/03 04:11:40;;;;;;;14.18;5.22;;;7.60;99.90;;;;;;5030946;28;20060;-61
2023/05/03 04:14:08;;;;;;;14.40;5.85;;;7.60;99.90;;;;;;5033488;28;20056;-59
2023/05/03 04:16:35;;;;;;;14.15;5.25;;;7.60;99.90;;;;;;5031985;28;20049;-60
2023/05/03 04:19:05;;;;;;;14.85;4.80;;;7.50;99.90;;;;;;5007698;28;20489;-61
2023/05/03 04:21:37;;;;;;;13.75;5.60;;;7.50;99.90;;;;;;5011153;28;20054;-60
2023/05/03 04:24:06;;;;;;;11.65;4.85;;;7.50;99.90;;;;;;5032214;28;20404;-60
2023/05/03 04:26:34;;;;;;;13.95;6.15;;;7.50;99.90;;;;;;5015469;28;20045;-61
2023/05/03 04:29:10;;;;;;;14.45;5.15;;;7.40;99.90;;;;;;5014631;28;20041;-59
2023/05/03 04:31:39;;;;;;;13.50;5.55;;;7.40;99.90;;;;;;5015047;28;20515;-60
2023/05/03 04:34:09;;;;;;;16.40;5.43;;;7.40;99.90;;;;;;4995732;28;20041;-59
2023/05/03 04:36:37;;;;;;;10.85;5.68;;;7.30;99.90;;;;;;5013005;28;20397;-59
2023/05/03 04:39:06;;;;;;;12.07;5.47;;;7.30;99.90;;;;;;5014913;28;20052;-59
2023/05/03 04:41:35;;;;;;;8.68;4.55;;;7.30;99.90;;;;;;5014489;28;20500;-60
2023/05/03 04:44:04;;;;;;;10.70;4.80;;;7.30;99.90;;;;;;5014884;28;20397;-58
2023/05/03 04:46:32;;;;;;;8.65;4.80;;;7.20;99.90;;;;;;5027211;28;20053;-59
2023/05/03 04:48:59;;;;;;;13.30;4.13;;;7.20;99.90;;;;;;5005809;28;20050;-59
2023/05/03 04:51:28;;;;;;;9.63;4.38;;;7.20;99.90;;;;;;4996226;28;20041;-59
2023/05/03 04:54:00;;;;;;;10.65;5.60;;;7.20;99.90;;;;;;4993163;28;20053;-61
2023/05/03 04:56:28;;;;;;;10.82;5.03;;;7.20;99.90;;;;;;5008190;28;20053;-60
2023/05/03 04:59:07;;;;;;;10.52;5.18;;;7.20;99.90;;;;;;5021692;28;20053;-60
2023/05/03 05:01:35;;;;;;;9.85;4.63;;;7.10;99.90;;;;;;5017265;28;20060;-60
2023/05/03 05:04:06;;;;;;;12.23;4.78;;;7.10;99.90;;;;;;5022504;28;20048;-60
2023/05/03 05:06:42;;;;;;;10.63;4.25;;;7.10;99.90;;;;;;5008413;28;20052;-61
2023/05/03 05:09:23;;;;;;;8.80;3.97;;;7.20;99.90;;;;;;5009919;28;20056;-60
2023/05/03 05:11:54;;;;;;;12.90;4.25;;;7.20;99.90;;;;;;5007980;28;20046;-58
2023/05/03 05:14:31;;;;;;;11.50;4.25;;;7.20;99.90;;;;;;5021005;28;20060;-60
2023/05/03 05:16:59;;;;;;;9.85;4.65;;;7.20;99.90;;;;;;5025718;28;20386;-61
2023/05/03 05:19:27;;;;;;;13.02;4.63;;;6.00;99.90;;;;;;5008031;28;20064;-60
2023/05/03 05:21:56;;;;;;;13.07;5.50;;;7.20;99.90;;;;;;4989897;28;20068;-61
2023/05/03 05:24:30;;;;;;;10.95;4.78;;;;;;;;;;5007625;28;20417;-59
2023/05/03 05:26:58;;;;;;;13.02;5.18;;;7.20;99.90;;;;;;5008895;28;20049;-62
2023/05/03 05:29:26;;;;;;;14.45;5.40;;;7.20;99.90;;;;;;5013972;28;20045;-58
2023/05/03 05:31:53;;;;;;;11.82;4.72;;;8.50;99.90;;;;;;5022713;28;20046;-61
2023/05/03 05:34:22;;;;;;;12.68;5.07;;;7.20;99.90;;;;;;5003168;28;20049;-60
2023/05/03 05:36:51;;;;;;;10.90;4.75;;;7.30;99.90;;;;;;5026445;28;20211;-59
2023/05/03 05:39:23;;;;;;;12.48;5.53;;;7.20;99.90;;;;;;5010664;28;20050;-59
2023/05/03 05:41:51;;;;;;;13.50;5.88;;;7.30;99.90;;;;;;5009089;28;20060;-60
2023/05/03 05:44:18;;;;;;;15.07;4.97;;;7.30;99.90;;;;;;5019719;28;20512;-58
2023/05/03 05:46:48;;;;;;;15.10;5.10;;;7.30;99.90;;;;;;5026163;28;20527;-59
2023/05/03 05:49:17;;;;;;;15.30;4.97;;;7.40;99.90;;;;;;5006976;28;20670;-60
2023/05/03 05:51:45;;;;;;;11.00;4.60;;;7.40;99.90;;;;;;4987409;28;20314;-61
2023/05/03 05:54:13;;;;;;;11.57;4.78;;;7.40;99.90;;;;;;5005867;28;20048;-60
2023/05/03 05:56:41;;;;;;;12.77;4.75;;;7.50;99.90;;;;;;5005662;28;20062;-59
2023/05/03 05:59:09;;;;;;;12.50;4.93;;;7.50;99.90;;;;;;5009752;28;20045;-61
2023/05/03 06:01:40;;;;;;;10.68;4.80;;;7.50;99.90;;;;;;5003376;28;20053;-60
2023/05/03 06:04:09;;;;;;;10.95;4.68;;;7.60;99.90;;;;;;4998728;28;20049;-60
2023/05/03 06:06:37;;;;;;;12.52;4.78;;;7.60;99.90;;;;;;5012301;28;20048;-61
2023/05/03 06:09:07;;;;;;;11.95;4.85;;;7.60;99.90;;;;;;5009282;28;20052;-60
2023/05/03 06:11:51;;;;;;;7.20;3.53;;;7.70;99.90;;;;;;5007076;28;20053;-60
2023/05/03 06:14:19;;;;;;;11.90;5.22;;;7.70;99.90;;;;;;5027897;28;20042;-60
2023/05/03 06:16:48;;;;;;;10.98;4.20;;;7.80;99.90;;;;;;5008155;28;20071;-58
2023/05/03 06:19:15;;;;;;;12.43;4.20;;;7.90;99.90;;;;;;4999723;28;20057;-60
2023/05/03 06:21:43;;;;;;;8.55;4.10;;;7.90;99.90;;;;;;4990969;28;20052;-60
2023/05/03 06:24:11;;;;;;;11.77;4.50;;;;;;;;;;5020366;28;20048;-61
2023/05/03 06:26:39;;;;;;;12.30;4.45;;;7.90;99.90;;;;;;5022964;28;20060;-62
2023/05/03 06:29:07;;;;;;;7.53;3.88;;;8.00;99.90;;;;;;4997905;28;20041;-62
2023/05/03 06:31:35;;;;;;;9.88;3.70;;;8.00;99.90;;;;;;5003895;28;20062;-62
2023/05/03 06:34:06;;;;;;;9.90;3.88;;;8.10;99.90;;;;;;5000065;28;20041;-59
2023/05/03 06:36:38;;;;;;;7.28;3.20;;;8.10;99.90;;;;;;5021368;28;20082;-59
2023/05/03 06:39:08;;;;;;;8.95;3.47;;;8.20;99.90;;;;;;5010079;28;20050;-59
2023/05/03 06:41:36;;;;;;;13.13;3.80;;;8.20;99.90;;;;;;5010005;28;20057;-60
2023/05/03 06:44:06;;;;;;;5.55;3.28;;;;;;;;;;5022491;28;20045;-61
2023/05/03 06:46:36;;;;;;;13.55;4.15;;;8.30;99.90;;;;;;5015568;28;20049;-60
2023/05/03 06:49:05;;;;;;;6.30;3.17;;;8.40;99.90;;;;;;5007684;28;20049;-59
2023/05/03 06:51:33;;;;;;;8.57;3.90;;;8.40;99.90;;;;;;5005806;28;20053;-60
2023/05/03 06:54:08;;;;;;;9.23;3.25;;;8.50;99.90;;;;;;5018666;28;20061;-58
2023/05/03 06:56:36;;;;;;;8.40;3.20;;;8.50;99.90;;;;;;5027448;28;20064;-60
2023/05/03 06:59:03;;;;;;;9.02;3.28;;;8.50;99.90;;;;;;5030666;28;20037;-58
2023/05/03 07:01:31;;;;;;;7.78;3.45;;;8.50;99.90;;;;;;5026851;28;20061;-58
2023/05/03 07:04:00;;;;;;;9.60;3.60;;;8.60;99.90;;;;;;5021800;28;20764;-59
2023/05/03 07:06:28;;;;;;;9.65;3.63;;;8.70;99.90;;;;;;5027328;28;20054;-60
2023/05/03 07:09:03;;;;;;;9.80;3.63;;;8.80;99.90;;;;;;5029846;28;20436;-58
2023/05/03 07:11:33;;;;;;;8.50;3.28;;;8.90;99.90;;;;;;5026360;28;20524;-60
2023/05/03 07:14:00;;;;;;;6.85;3.17;;;9.00;99.90;;;;;;5023816;28;20054;-60
2023/05/03 07:16:28;;;;;;;4.97;2.90;;;9.00;99.90;;;;;;5028135;28;20045;-59
2023/05/03 07:18:56;;;;;;;9.18;3.25;;;9.00;99.90;;;;;;5027025;28;20402;-60
2023/05/03 07:21:25;;;;;;;5.43;2.75;;;9.10;99.90;;;;;;5026261;28;20049;-60
2023/05/03 07:23:53;;;;;;;5.15;2.75;;;9.10;99.90;;;;;;5026442;28;20053;-60
2023/05/03 07:26:21;;;;;;;10.63;3.20;;;9.20;99.90;;;;;;5008728;28;20053;-60
2023/05/03 07:28:49;;;;;;;3.97;2.40;;;9.20;99.90;;;;;;5027117;28;20041;-60
2023/05/03 07:31:16;;;;;;;6.22;2.50;;;9.30;99.90;;;;;;5026745;28;20052;-62
2023/05/03 07:33:44;;;;;;;7.30;2.25;;;9.30;99.90;;;;;;5010897;28;20432;-60
2023/05/03 07:36:12;;;;;;;8.15;3.85;;;9.40;99.90;;;;;;5026211;28;20522;-61
2023/05/03 07:38:39;;;;;;;6.50;2.50;;;9.40;99.90;;;;;;5023582;28;20384;-61
2023/05/03 07:41:08;;;;;;;6.68;2.17;;;9.50;99.90;;;;;;4999561;28;20393;-62
2023/05/03 07:43:36;;;;;;;5.18;2.53;;;9.60;99.90;;;;;;5000790;28;21982;-63
2023/05/03 07:46:04;;;;;;;5.57;3.13;;;9.60;99.90;;;;;;5003833;28;20041;-60
2023/05/03 07:48:32;;;;;;;7.57;3.45;;;9.60;99.90;;;;;;5023128;28;20057;-63
2023/05/03 07:51:03;;;;;;;11.50;2.95;;;9.70;99.90;;;;;;5029289;28;20510;-60
2023/05/03 07:53:34;;;;;;;5.78;3.63;;;9.80;99.90;;;;;;5024761;28;20080;-59
2023/05/03 07:56:01;;;;;;;7.53;4.10;;;9.90;99.90;;;;;;5012924;28;20041;-59
2023/05/03 07:58:30;;;;;;;9.13;3.40;;;10.00;99.90;;;;;;5029857;28;20116;-61
2023/05/03 08:01:09;;;;;;;12.43;3.10;;;10.10;99.90;;;;;;5010859;28;20057;-61
2023/05/03 08:03:37;;;;;;;6.03;2.78;;;10.20;99.90;;;;;;5015909;28;20045;-60
2023/05/03 08:06:05;;;;;;;7.15;2.88;;;10.20;99.90;;;;;;5012528;28;20329;-61
2023/05/03 08:08:35;;;;;;;6.03;3.90;;;10.30;99.90;;;;;;5029799;28;20128;-60
2023/05/03 08:11:05;;;;;;;12.35;3.58;;;10.40;99.90;;;;;;5030396;28;20053;-58
2023/05/03 08:13:33;;;;;;;8.85;3.45;;;10.40;99.90;;;;;;5029567;28;20057;-60
2023/05/03 08:16:01;;;;;;;12.63;2.90;;;10.50;99.90;;;;;;5020917;28;20050;-60
2023/05/03 08:18:29;;;;;;;14.68;2.55;;;10.60;99.90;;;;;;5029751;28;20060;-61
2023/05/03 08:20:57;;;;;;;5.53;2.58;;;10.70;99.90;;;;;;5014690;28;20054;-61
2023/05/03 08:23:25;;;;;;;7.10;3.08;;;10.80;99.90;;;;;;5022554;28;20042;-59
2023/05/03 08:25:53;;;;;;;8.45;2.85;;;10.80;99.90;;;;;;5025029;28;20592;-59
2023/05/03 08:28:21;;;;;;;4.13;2.22;;;10.90;99.90;;;;;;5022024;28;20049;-60
2023/05/03 08:30:48;;;;;;;6.90;2.78;;;11.00;99.90;;;;;;5026261;28;20045;-61
2023/05/03 08:33:16;;;;;;;3.88;2.30;;;11.10;99.90;;;;;;5002896;28;20053;-60
2023/05/03 08:35:44;;;;;;;5.10;2.40;;;11.20;99.90;;;;;;5028784;28;20060;-59
2023/05/03 08:38:14;;;;;;;4.50;2.40;;;11.40;99.90;;;;;;5021718;28;20493;-60
2023/05/03 08:40:44;;;;;;;4.43;2.55;;;11.30;99.90;;;;;;5029749;28;20037;-60
2023/05/03 08:43:14;;;;;;;5.03;2.38;;;11.50;99.90;;;;;;5029252;28;20049;-60
2023/05/03 08:45:42;;;;;;;8.95;2.70;;;11.60;99.90;;;;;;5004375;28;20050;-61
2023/05/03 08:48:10;;;;;;;4.93;2.22;;;11.70;99.90;;;;;;5017500;28;20496;-61
2023/05/03 08:50:41;;;;;;;5.88;2.13;;;11.80;99.90;;;;;;4992166;28;20386;-61
2023/05/03 08:53:10;;;;;;;6.13;2.80;;;11.90;99.90;;;;;;5013349;28;20053;-59
2023/05/03 08:55:38;;;;;;;6.55;2.72;;;12.10;99.90;;;;;;5010322;28;20499;-61
2023/05/03 08:58:11;;;;;;;6.82;2.60;;;12.20;99.90;;;;;;5029290;28;20049;-61
2023/05/03 09:00:43;;;;;;;7.38;3.58;;;12.20;99.90;;;;;;5024980;28;20042;-61
2023/05/03 09:03:12;;;;;;;7.43;2.80;;;12.30;99.90;;;;;;5006263;28;20502;-60
2023/05/03 09:05:42;;;;;;;2.67;2.25;;;12.40;99.90;;;;;;5027121;28;20049;-61
2023/05/03 09:08:12;;;;;;;5.32;3.10;;;12.60;99.90;;;;;;5027066;28;20053;-61
2023/05/03 09:10:41;;;;;;;8.05;2.90;;;12.50;99.90;;;;;;5011370;28;20385;-60
2023/05/03 09:13:09;;;;;;;5.90;2.38;;;12.60;99.90;;;;;;5024295;28;20048;-59
2023/05/03 09:15:37;;;;;;;7.47;2.45;;;12.70;99.90;;;;;;5016760;28;20046;-59
2023/05/03 09:18:11;;;;;;;4.57;2.55;;;12.80;99.90;;;;;;5018758;28;20053;-61
2023/05/03 09:20:41;;;;;;;5.55;2.70;;;13.00;99.90;;;;;;5028068;28;20050;-62
2023/05/03 09:23:09;;;;;;;6.10;2.73;;;13.10;99.90;;;;;;5020246;28;20068;-60
2023/05/03 09:25:47;;;;;;;5.07;2.90;;;13.10;99.90;;;;;;5028815;28;20365;-61
2023/05/03 09:28:16;;;;;;;8.15;2.95;;;13.30;99.90;;;;;;5024378;28;20057;-62
2023/05/03 09:30:44;;;;;;;8.48;3.25;;;13.40;99.90;;;;;;5026460;28;20049;-62
2023/05/03 09:33:20;;;;;;;7.30;3.35;;;13.50;99.90;;;;;;5022613;28;20065;-62
2023/05/03 09:36:00;;;;;;;12.45;3.13;;;13.70;99.90;;;;;;5008258;28;20527;-61
2023/05/03 09:38:30;;;;;;;8.90;3.50;;;13.70;99.90;;;;;;5006996;28;20520;-62
2023/05/03 09:40:58;;;;;;;7.15;3.47;;;13.80;99.90;;;;;;5027196;28;20041;-63
2023/05/03 09:43:26;;;;;;;5.97;3.17;;;13.80;99.90;;;;;;5018356;28;20410;-61
2023/05/03 09:46:12;;;;;;;5.63;3.15;;;13.80;99.90;;;;;;5019150;28;20037;-59
2023/05/03 09:48:41;;;;;;;9.45;3.72;;;13.90;99.90;;;;;;5009687;28;20049;-62
2023/05/03 09:51:10;;;;;;;10.75;3.78;;;13.90;99.90;;;;;;5028427;28;20052;-61
2023/05/03 09:53:40;;;;;;;5.35;3.58;;;13.90;99.90;;;;;;5013128;28;20045;-62
2023/05/03 09:56:11;;;;;;;10.70;3.95;;;14.00;99.90;;;;;;5008412;28;20045;-61
2023/05/03 09:58:40;;;;;;;8.70;3.10;;;14.00;99.90;;;;;;5008642;28;20509;-62
2023/05/03 10:01:09;;;;;;;9.63;3.22;;;14.00;99.90;;;;;;5021963;28;20045;-60
2023/05/03 10:03:42;;;;;;;8.38;3.83;;;14.00;99.90;;;;;;5012848;28;20054;-62
2023/05/03 10:06:34;;;;;;;41.15;14.38;;;14.10;99.90;;;;;;4991297;28;20065;-59
2023/05/03 10:09:23;;;;;;;11.52;3.78;;;14.20;99.90;;;;;;5004389;28;20080;-61
2023/05/03 10:11:58;;;;;;;4.97;3.47;;;14.20;99.90;;;;;;5024826;28;20449;-61
2023/05/03 10:14:25;;;;;;;9.23;3.90;;;14.50;99.90;;;;;;5027489;28;20482;-61
2023/05/03 10:17:10;;;;;;;6.57;3.53;;;14.50;99.90;;;;;;5025578;28;20057;-60
2023/05/03 10:19:46;;;;;;;8.45;3.53;;;14.80;99.90;;;;;;5003994;28;20473;-61
2023/05/03 10:22:14;;;;;;;8.38;3.70;;;14.80;99.90;;;;;;5005181;28;20046;-61
2023/05/03 10:25:01;;;;;;;7.38;3.80;;;15.00;99.90;;;;;;5027451;28;20046;-61
2023/05/03 10:27:48;;;;;;;;;;;15.00;99.90;;;;;;5022901;28;20519;-60
2023/05/03 10:30:39;;;;;;;6.43;3.47;;;15.00;99.90;;;;;;5010231;28;20001;-60
2023/05/03 10:33:13;;;;;;;7.90;3.88;;;15.00;99.90;;;;;;4974665;28;20050;-60
2023/05/03 10:35:53;;;;;;;7.35;3.53;;;15.10;99.90;;;;;;4975540;28;20061;-61
2023/05/03 10:38:23;;;;;;;9.70;3.70;;;15.20;99.90;;;;;;4985049;28;20386;-61
2023/05/03 10:40:51;;;;;;;;;;;15.30;99.90;;;;;;4990986;28;20057;-61
2023/05/03 10:43:30;;;;;;;5.32;3.15;;;15.40;99.90;;;;;;4987822;28;20289;-60
2023/05/03 10:46:03;;;;;;;6.30;3.08;;;15.50;99.90;;;;;;4991427;28;20515;-62
2023/05/03 10:48:32;;;;;;;6.60;3.00;;;15.50;99.90;;;;;;4991245;28;20057;-62
2023/05/03 10:51:27;;;;;;;5.22;2.75;;;15.60;99.90;;;;;;4991192;28;20057;-61
2023/05/03 10:53:54;;;;;;;5.72;2.55;;;15.60;99.90;;;;;;4967450;28;20054;-61
2023/05/03 10:56:22;;;;;;;8.27;2.75;;;15.70;99.90;;;;;;4985397;28;20050;-61
2023/05/03 10:58:54;;;;;;;6.18;2.83;;;15.70;99.90;;;;;;4990828;28;20049;-60
2023/05/03 11:01:23;;;;;;;4.57;2.53;;;15.80;99.90;;;;;;4983867;28;20047;-61
2023/05/03 11:04:07;;;;;;;7.30;3.25;;;15.90;99.90;;;;;;4986832;28;20046;-62
2023/05/03 11:06:36;;;;;;;5.53;2.63;;;16.00;99.90;;;;;;4977128;28;20046;-64
2023/05/03 11:09:06;;;;;;;4.88;3.00;;;16.10;99.90;;;;;;4989767;28;20081;-64
2023/05/03 11:11:39;;;;;;;4.85;2.72;;;16.30;99.90;;;;;;4992029;28;20043;-62
2023/05/03 11:14:08;;;;;;;5.18;2.88;;;16.40;99.90;;;;;;4988534;28;20254;-62
2023/05/03 11:16:39;;;;;;;6.75;3.15;;;16.50;99.90;;;;;;4982613;28;20440;-61
2023/05/03 11:19:08;;;;;;;4.05;2.42;;;16.50;99.90;;;;;;4974889;28;20055;-61
2023/05/03 11:21:36;;;;;;;5.85;2.88;;;16.50;99.90;;;;;;4972373;28;20047;-62
2023/05/03 11:24:06;;;;;;;7.25;2.30;;;16.50;99.90;;;;;;4986197;28;20054;-61
2023/05/03 11:26:37;;;;;;;4.55;2.03;;;16.50;99.90;;;;;;4988356;28;20046;-62
2023/05/03 11:29:05;;;;;;;3.63;2.08;;;16.50;99.90;;;;;;4982346;28;20057;-60
2023/05/03 11:31:34;;;;;;;4.80;2.05;;;16.60;99.90;;;;;;5004766;28;20061;-60
2023/05/03 11:34:02;;;;;;;8.48;2.08;;;16.60;99.90;;;;;;5016499;28;20053;-60
2023/05/03 11:36:30;;;;;;;4.95;1.95;;;;;;;;;;5016976;28;20056;-61
2023/05/03 11:38:59;;;;;;;5.45;1.85;;;16.70;99.90;;;;;;5024420;28;20515;-62
2023/05/03 11:41:26;;;;;;;4.05;1.77;;;16.80;98.60;;;;;;5010770;28;20049;-62
2023/05/03 11:43:54;;;;;;;3.50;1.85;;;16.80;98.20;;;;;;5025679;28;20065;-61
2023/05/03 11:46:42;;;;;;;7.05;1.85;;;16.80;98.30;;;;;;5030123;28;20042;-62
2023/05/03 11:49:16;;;;;;;2.13;1.52;;;16.90;99.00;;;;;;5027212;28;20060;-60
2023/05/03 11:51:44;;;;;;;1.98;1.30;;;17.10;98.50;;;;;;5024606;28;20049;-61
2023/05/03 11:54:16;;;;;;;2.00;1.15;;;17.30;95.80;;;;;;5009882;28;20061;-60
2023/05/03 11:56:57;;;;;;;3.88;1.67;;;17.40;94.60;;;;;;5030695;28;20045;-63
2023/05/03 11:59:37;;;;;;;4.30;1.80;;;17.40;94.80;;;;;;5012470;28;20045;-62
2023/05/03 12:02:08;;;;;;;3.03;1.95;;;17.30;94.00;;;;;;5006929;28;20056;-62
2023/05/03 12:04:40;;;;;;;4.05;2.30;;;17.20;94.10;;;;;;5003429;28;20053;-61
2023/05/03 12:07:10;;;;;;;4.22;2.20;;;17.30;93.90;;;;;;5023977;28;20049;-62
2023/05/03 12:09:40;;;;;;;3.67;1.67;;;17.30;94.20;;;;;;5030128;28;20049;-61
2023/05/03 12:12:18;;;;;;;2.35;1.60;;;17.40;95.40;;;;;;5023489;28;20060;-60
2023/05/03 12:15:00;;;;;;;3.80;2.03;;;17.70;94.00;;;;;;5027699;28;20049;-62
2023/05/03 12:17:38;;;;;;;2.53;1.55;;;17.90;93.20;;;;;;5005901;28;20045;-62
2023/05/03 12:20:21;;;;;;;2.53;1.10;;;18.20;91.40;;;;;;5016655;28;20551;-61
2023/05/03 12:22:54;;;;;;;3.70;1.48;;;18.20;91.70;;;;;;5024539;28;20053;-62
2023/05/03 12:25:26;;;;;;;3.20;1.85;;;18.40;90.60;;;;;;5027172;28;20046;-61
2023/05/03 12:28:02;;;;;;;1.60;1.17;;;18.60;90.10;;;;;;5000792;28;20053;-64
2023/05/03 12:30:32;;;;;;;2.55;1.63;;;18.80;86.90;;;;;;5027273;28;20504;-61
2023/05/03 12:33:00;;;;;;;4.90;1.92;;;19.00;88.00;;;;;;5023796;28;20076;-61
2023/05/03 12:35:31;;;;;;;3.28;1.45;;;19.10;89.20;;;;;;5019924;28;20543;-61
2023/05/03 12:38:02;;;;;;;3.60;1.92;;;19.30;82.20;;;;;;5017366;28;20041;-61
2023/05/03 12:40:37;;;;;;;2.08;1.55;;;19.30;82.10;;;;;;5029797;28;20053;-62
2023/05/03 12:43:06;;;;;;;6.05;1.90;;;19.20;82.90;;;;;;5010393;28;20038;-63
2023/05/03 12:45:34;;;;;;;3.53;2.25;;;19.40;86.40;;;;;;5017658;28;20060;-62
2023/05/03 12:48:02;;;;;;;2.90;1.88;;;19.40;85.40;;;;;;5029321;28;20401;-62
2023/05/03 12:50:30;;;;;;;3.50;1.83;;;19.20;83.00;;;;;;5028566;28;20045;-62
2023/05/03 12:52:59;;;;;;;3.88;1.52;;;19.10;83.30;;;;;;5027957;28;20041;-62
2023/05/03 12:55:37;;;;;;;3.55;1.70;;;19.20;84.40;;;;;;5023992;28;20045;-63
2023/05/03 12:58:10;;;;;;;4.88;1.95;;;19.30;81.90;;;;;;5025058;28;20045;-61
2023/05/03 13:00:41;;;;;;;5.82;2.17;;;19.50;83.20;;;;;;5019894;28;20072;-62
2023/05/03 13:03:30;;;;;;;3.15;1.95;;;19.60;81.40;;;;;;5028011;28;20534;-63
2023/05/03 13:06:04;;;;;;;4.93;1.70;;;19.40;81.70;;;;;;5020233;28;20057;-61
2023/05/03 13:08:39;;;;;;;8.55;2.38;;;19.10;83.80;;;;;;5028616;28;20069;-61
2023/05/03 13:11:17;;;;;;;2.50;1.83;;;18.80;86.30;;;;;;4993879;28;20053;-61